Etusivu
METAR-TAF:

METAR-TAF

Lentoasemat :

Anchorage, Alaska, Yhdysvallat

Anchoragen kansainvälinen lentoasema

Leveyspiiri: 61-10-28N, Pituuspiiri: 149-59-46W, korkeus merenpinnasta: 44 m

Tämänhetkinen sää

Tämä raportti tehtiin 15 minuuttia sitten, kello 19.53 UTC
tyyntä
Lämpötila -5°C
Kosteus 53%
Ilmanpaine 1008 hPa
Näkyvyys: 16.1 km
selkeää

METAR: PANC 231953Z 00000KT 10SM CLR M05/M13 A2977 RMK AO2 SLP085 T10501128

Aika: 12:08 (20:08 UTC)

Sääennuste

Tämä raportti tehtiin 2 tuntia ja 47 minuuttia sitten, kello 17.21 UTC
Ennuste voimassa 23. päivästä klo 18 UTC - 24. päivään klo 24 UTC
Tuuli 5 kn pohjoisesta
Näkyvyys: 10 km
selkeää

TAF: PANC 231721Z 2318/2424 36005KT P6SM SKC

Säähavainnot ja -ennusteet yli 4000 lentoasemalta (METAR- ja TAF-raportit).

Käytössä olevat sääasemat on merkitty karttaan keltaisilla ja punaisilla pisteillä.

Aseta hiiri pisteen päälle nähdäksesi sääaseman nimen.

Klikkaa sitten nähdäksesi säähavainnot ja -ennusteet.

Kartan vaihtaminen: klikkaa mustalla rastilla varustettuja vihreitä pisteitä, niin voit zoomata sisään; viivalla varustettua vihreää pistettä, niin voit zoomata ulos tai vihreitä nuolia, niin pääset viereisille kartoille.


METAR-TAF: